sensor_id;sensor_type;location;lat;lon;timestamp;temperature;humidity
66373;SHT30;53168;51.146;17.120;2022-10-12T00:01:45;5.44;72.15
66373;SHT30;53168;51.146;17.120;2022-10-12T00:04:17;5.45;72.18
66373;SHT30;53168;51.146;17.120;2022-10-12T00:06:49;5.48;72.15
66373;SHT30;53168;51.146;17.120;2022-10-12T00:09:20;5.50;72.20
66373;SHT30;53168;51.146;17.120;2022-10-12T00:11:52;5.48;72.18
66373;SHT30;53168;51.146;17.120;2022-10-12T00:14:24;5.47;72.31
66373;SHT30;53168;51.146;17.120;2022-10-12T00:16:55;5.48;72.34
66373;SHT30;53168;51.146;17.120;2022-10-12T00:19:27;5.46;72.21
66373;SHT30;53168;51.146;17.120;2022-10-12T00:21:59;5.41;72.40
66373;SHT30;53168;51.146;17.120;2022-10-12T00:24:31;5.35;72.59
66373;SHT30;53168;51.146;17.120;2022-10-12T00:27:08;5.31;72.66
66373;SHT30;53168;51.146;17.120;2022-10-12T00:29:40;5.29;72.67
66373;SHT30;53168;51.146;17.120;2022-10-12T00:32:12;5.24;72.59
66373;SHT30;53168;51.146;17.120;2022-10-12T00:34:44;5.21;72.57
66373;SHT30;53168;51.146;17.120;2022-10-12T00:37:16;5.17;72.53
66373;SHT30;53168;51.146;17.120;2022-10-12T00:39:48;5.13;72.74
66373;SHT30;53168;51.146;17.120;2022-10-12T00:42:20;5.05;72.94
66373;SHT30;53168;51.146;17.120;2022-10-12T00:44:52;5.00;72.99
66373;SHT30;53168;51.146;17.120;2022-10-12T00:47:25;4.96;72.91
66373;SHT30;53168;51.146;17.120;2022-10-12T00:50:00;4.93;72.90
66373;SHT30;53168;51.146;17.120;2022-10-12T00:52:37;4.88;72.90
66373;SHT30;53168;51.146;17.120;2022-10-12T00:55:13;4.83;72.94
66373;SHT30;53168;51.146;17.120;2022-10-12T00:57:47;4.79;73.00
66373;SHT30;53168;51.146;17.120;2022-10-12T01:00:21;4.75;73.07
66373;SHT30;53168;51.146;17.120;2022-10-12T01:02:53;4.70;73.10
66373;SHT30;53168;51.146;17.120;2022-10-12T01:05:25;4.68;73.22
66373;SHT30;53168;51.146;17.120;2022-10-12T01:07:57;4.66;73.39
66373;SHT30;53168;51.146;17.120;2022-10-12T01:10:31;4.66;73.38
66373;SHT30;53168;51.146;17.120;2022-10-12T01:13:02;4.68;73.40
66373;SHT30;53168;51.146;17.120;2022-10-12T01:15:35;4.70;73.44
66373;SHT30;53168;51.146;17.120;2022-10-12T01:18:15;4.76;73.49
66373;SHT30;53168;51.146;17.120;2022-10-12T01:20:53;4.79;73.51
66373;SHT30;53168;51.146;17.120;2022-10-12T01:23:41;4.78;73.57
66373;SHT30;53168;51.146;17.120;2022-10-12T01:29:36;4.75;73.59
66373;SHT30;53168;51.146;17.120;2022-10-12T01:32:22;4.75;73.59
66373;SHT30;53168;51.146;17.120;2022-10-12T01:35:00;4.74;73.58
66373;SHT30;53168;51.146;17.120;2022-10-12T01:37:39;4.71;73.60
66373;SHT30;53168;51.146;17.120;2022-10-12T01:40:18;4.69;73.60
66373;SHT30;53168;51.146;17.120;2022-10-12T01:42:54;4.66;73.60
66373;SHT30;53168;51.146;17.120;2022-10-12T01:45:28;4.61;73.68
66373;SHT30;53168;51.146;17.120;2022-10-12T01:48:00;4.56;73.86
66373;SHT30;53168;51.146;17.120;2022-10-12T01:50:38;4.50;74.11
66373;SHT30;53168;51.146;17.120;2022-10-12T01:53:19;4.44;74.25
66373;SHT30;53168;51.146;17.120;2022-10-12T01:56:00;4.40;74.47
66373;SHT30;53168;51.146;17.120;2022-10-12T01:58:42;4.37;74.50
66373;SHT30;53168;51.146;17.120;2022-10-12T02:01:25;4.32;74.51
66373;SHT30;53168;51.146;17.120;2022-10-12T02:04:03;4.30;74.47
66373;SHT30;53168;51.146;17.120;2022-10-12T02:06:46;4.28;74.40
66373;SHT30;53168;51.146;17.120;2022-10-12T02:09:22;4.26;74.42
66373;SHT30;53168;51.146;17.120;2022-10-12T02:11:58;4.25;74.55
66373;SHT30;53168;51.146;17.120;2022-10-12T02:14:36;4.23;74.61
66373;SHT30;53168;51.146;17.120;2022-10-12T02:17:10;4.20;74.76
66373;SHT30;53168;51.146;17.120;2022-10-12T02:19:45;4.17;74.80
66373;SHT30;53168;51.146;17.120;2022-10-12T02:22:19;4.14;74.89
66373;SHT30;53168;51.146;17.120;2022-10-12T02:24:54;4.11;74.96
66373;SHT30;53168;51.146;17.120;2022-10-12T02:27:27;4.08;75.00
66373;SHT30;53168;51.146;17.120;2022-10-12T02:30:02;4.05;75.00
66373;SHT30;53168;51.146;17.120;2022-10-12T02:32:36;4.05;74.91
66373;SHT30;53168;51.146;17.120;2022-10-12T02:35:13;4.08;75.00
66373;SHT30;53168;51.146;17.120;2022-10-12T02:37:51;4.12;74.92
66373;SHT30;53168;51.146;17.120;2022-10-12T02:40:31;4.16;74.98
66373;SHT30;53168;51.146;17.120;2022-10-12T02:43:07;4.16;75.10
66373;SHT30;53168;51.146;17.120;2022-10-12T02:45:45;4.19;75.19
66373;SHT30;53168;51.146;17.120;2022-10-12T02:48:19;4.22;75.20
66373;SHT30;53168;51.146;17.120;2022-10-12T02:50:53;4.26;75.19
66373;SHT30;53168;51.146;17.120;2022-10-12T02:53:26;4.31;75.18
66373;SHT30;53168;51.146;17.120;2022-10-12T02:56:00;4.36;75.09
66373;SHT30;53168;51.146;17.120;2022-10-12T02:58:34;4.40;75.05
66373;SHT30;53168;51.146;17.120;2022-10-12T03:01:06;4.40;75.00
66373;SHT30;53168;51.146;17.120;2022-10-12T03:03:39;4.41;75.00
66373;SHT30;53168;51.146;17.120;2022-10-12T03:06:11;4.41;75.05
66373;SHT30;53168;51.146;17.120;2022-10-12T03:08:43;4.41;75.06
66373;SHT30;53168;51.146;17.120;2022-10-12T03:11:15;4.38;75.19
66373;SHT30;53168;51.146;17.120;2022-10-12T03:13:47;4.33;75.40
66373;SHT30;53168;51.146;17.120;2022-10-12T03:16:20;4.28;75.50
66373;SHT30;53168;51.146;17.120;2022-10-12T03:18:53;4.24;75.52
66373;SHT30;53168;51.146;17.120;2022-10-12T03:21:25;4.21;75.60
66373;SHT30;53168;51.146;17.120;2022-10-12T03:23:56;4.17;75.67
66373;SHT30;53168;51.146;17.120;2022-10-12T03:26:28;4.15;75.70
66373;SHT30;53168;51.146;17.120;2022-10-12T03:29:00;4.14;75.70
66373;SHT30;53168;51.146;17.120;2022-10-12T03:31:32;4.13;75.67
66373;SHT30;53168;51.146;17.120;2022-10-12T03:34:04;4.12;75.62
66373;SHT30;53168;51.146;17.120;2022-10-12T03:36:36;4.10;75.76
66373;SHT30;53168;51.146;17.120;2022-10-12T03:39:08;4.11;75.80
66373;SHT30;53168;51.146;17.120;2022-10-12T03:41:40;4.10;75.85
66373;SHT30;53168;51.146;17.120;2022-10-12T03:44:11;4.10;75.93
66373;SHT30;53168;51.146;17.120;2022-10-12T03:46:43;4.10;76.05
66373;SHT30;53168;51.146;17.120;2022-10-12T03:49:15;4.09;76.17
66373;SHT30;53168;51.146;17.120;2022-10-12T03:51:47;4.06;76.34
66373;SHT30;53168;51.146;17.120;2022-10-12T03:54:22;4.06;76.38
66373;SHT30;53168;51.146;17.120;2022-10-12T03:56:54;4.08;76.31
66373;SHT30;53168;51.146;17.120;2022-10-12T03:59:26;4.10;76.20
66373;SHT30;53168;51.146;17.120;2022-10-12T04:01:58;4.14;76.20
66373;SHT30;53168;51.146;17.120;2022-10-12T04:04:30;4.20;76.12
66373;SHT30;53168;51.146;17.120;2022-10-12T04:07:02;4.27;76.08
66373;SHT30;53168;51.146;17.120;2022-10-12T04:09:35;4.34;75.97
66373;SHT30;53168;51.146;17.120;2022-10-12T04:12:07;4.37;75.90
66373;SHT30;53168;51.146;17.120;2022-10-12T04:14:39;4.37;76.05
66373;SHT30;53168;51.146;17.120;2022-10-12T04:17:11;4.37;76.06
66373;SHT30;53168;51.146;17.120;2022-10-12T04:19:46;4.37;76.01
66373;SHT30;53168;51.146;17.120;2022-10-12T04:25:10;4.27;76.20
66373;SHT30;53168;51.146;17.120;2022-10-12T04:27:42;4.25;76.19
66373;SHT30;53168;51.146;17.120;2022-10-12T04:30:14;4.22;76.20
66373;SHT30;53168;51.146;17.120;2022-10-12T04:32:46;4.20;76.19
66373;SHT30;53168;51.146;17.120;2022-10-12T04:35:20;4.17;76.16
66373;SHT30;53168;51.146;17.120;2022-10-12T04:37:52;4.12;76.28
66373;SHT30;53168;51.146;17.120;2022-10-12T04:40:24;4.08;76.38
66373;SHT30;53168;51.146;17.120;2022-10-12T04:42:56;4.04;76.38
66373;SHT30;53168;51.146;17.120;2022-10-12T04:45:28;4.00;76.40
66373;SHT30;53168;51.146;17.120;2022-10-12T04:47:59;3.96;76.40
66373;SHT30;53168;51.146;17.120;2022-10-12T04:50:31;3.93;76.41
66373;SHT30;53168;51.146;17.120;2022-10-12T04:53:03;3.89;76.44
66373;SHT30;53168;51.146;17.120;2022-10-12T04:55:37;3.85;76.50
66373;SHT30;53168;51.146;17.120;2022-10-12T04:58:09;3.81;76.50
66373;SHT30;53168;51.146;17.120;2022-10-12T05:00:42;3.78;76.54
66373;SHT30;53168;51.146;17.120;2022-10-12T05:03:14;3.72;76.68
66373;SHT30;53168;51.146;17.120;2022-10-12T05:05:46;3.68;76.79
66373;SHT30;53168;51.146;17.120;2022-10-12T05:08:18;3.65;76.76
66373;SHT30;53168;51.146;17.120;2022-10-12T05:10:50;3.61;76.71
66373;SHT30;53168;51.146;17.120;2022-10-12T05:13:26;3.61;76.70
66373;SHT30;53168;51.146;17.120;2022-10-12T05:15:58;3.63;76.86
66373;SHT30;53168;51.146;17.120;2022-10-12T05:18:30;3.65;77.06
66373;SHT30;53168;51.146;17.120;2022-10-12T05:21:02;3.70;77.12
66373;SHT30;53168;51.146;17.120;2022-10-12T05:23:35;3.75;77.19
66373;SHT30;53168;51.146;17.120;2022-10-12T05:26:07;3.83;77.20
66373;SHT30;53168;51.146;17.120;2022-10-12T05:28:39;3.90;77.06
66373;SHT30;53168;51.146;17.120;2022-10-12T05:31:16;3.99;77.04
66373;SHT30;53168;51.146;17.120;2022-10-12T05:33:48;4.06;76.95
66373;SHT30;53168;51.146;17.120;2022-10-12T05:36:20;4.08;76.88
66373;SHT30;53168;51.146;17.120;2022-10-12T05:38:53;4.10;76.80
66373;SHT30;53168;51.146;17.120;2022-10-12T05:41:27;4.12;76.82
66373;SHT30;53168;51.146;17.120;2022-10-12T05:44:00;4.11;76.89
66373;SHT30;53168;51.146;17.120;2022-10-12T05:46:32;4.08;77.36
66373;SHT30;53168;51.146;17.120;2022-10-12T05:49:04;4.04;77.82
66373;SHT30;53168;51.146;17.120;2022-10-12T05:51:36;4.03;78.24
66373;SHT30;53168;51.146;17.120;2022-10-12T05:54:09;4.03;78.59
66373;SHT30;53168;51.146;17.120;2022-10-12T05:56:41;4.05;78.60
66373;SHT30;53168;51.146;17.120;2022-10-12T05:59:13;4.09;78.85
66373;SHT30;53168;51.146;17.120;2022-10-12T06:01:45;4.12;78.99
66373;SHT30;53168;51.146;17.120;2022-10-12T06:04:18;4.15;79.05
66373;SHT30;53168;51.146;17.120;2022-10-12T06:06:50;4.17;79.14
66373;SHT30;53168;51.146;17.120;2022-10-12T06:09:22;4.21;79.34
66373;SHT30;53168;51.146;17.120;2022-10-12T06:11:54;4.25;79.26
66373;SHT30;53168;51.146;17.120;2022-10-12T06:14:26;4.30;79.22
66373;SHT30;53168;51.146;17.120;2022-10-12T06:16:58;4.36;79.13
66373;SHT30;53168;51.146;17.120;2022-10-12T06:19:30;4.42;79.15
66373;SHT30;53168;51.146;17.120;2022-10-12T06:22:02;4.48;79.09
66373;SHT30;53168;51.146;17.120;2022-10-12T06:24:34;4.55;79.04
66373;SHT30;53168;51.146;17.120;2022-10-12T06:27:06;4.64;78.85
66373;SHT30;53168;51.146;17.120;2022-10-12T06:29:38;4.74;78.72
66373;SHT30;53168;51.146;17.120;2022-10-12T06:32:10;4.82;78.60
66373;SHT30;53168;51.146;17.120;2022-10-12T06:34:42;4.90;78.59
66373;SHT30;53168;51.146;17.120;2022-10-12T06:37:14;4.96;78.60
66373;SHT30;53168;51.146;17.120;2022-10-12T06:40:07;5.05;78.56
66373;SHT30;53168;51.146;17.120;2022-10-12T06:42:40;5.14;78.50
66373;SHT30;53168;51.146;17.120;2022-10-12T06:45:12;5.24;78.42
66373;SHT30;53168;51.146;17.120;2022-10-12T06:47:44;5.32;78.31
66373;SHT30;53168;51.146;17.120;2022-10-12T06:50:16;5.43;78.36
66373;SHT30;53168;51.146;17.120;2022-10-12T06:52:48;5.55;78.41
66373;SHT30;53168;51.146;17.120;2022-10-12T06:55:20;5.68;78.33
66373;SHT30;53168;51.146;17.120;2022-10-12T06:57:51;5.81;78.14
66373;SHT30;53168;51.146;17.120;2022-10-12T07:00:23;5.96;78.07
66373;SHT30;53168;51.146;17.120;2022-10-12T07:02:55;6.13;77.98
66373;SHT30;53168;51.146;17.120;2022-10-12T07:05:27;6.29;77.89
66373;SHT30;53168;51.146;17.120;2022-10-12T07:07:59;6.45;77.78
66373;SHT30;53168;51.146;17.120;2022-10-12T07:10:31;6.61;77.67
66373;SHT30;53168;51.146;17.120;2022-10-12T07:13:03;6.76;77.55
66373;SHT30;53168;51.146;17.120;2022-10-12T07:15:34;6.91;77.50
66373;SHT30;53168;51.146;17.120;2022-10-12T07:18:06;7.04;77.44
66373;SHT30;53168;51.146;17.120;2022-10-12T07:20:38;7.16;77.28
66373;SHT30;53168;51.146;17.120;2022-10-12T07:23:10;7.28;77.22
66373;SHT30;53168;51.146;17.120;2022-10-12T07:25:47;7.41;77.43
66373;SHT30;53168;51.146;17.120;2022-10-12T07:28:20;7.53;77.18
66373;SHT30;53168;51.146;17.120;2022-10-12T07:30:53;7.63;76.86
66373;SHT30;53168;51.146;17.120;2022-10-12T07:33:31;7.72;76.76
66373;SHT30;53168;51.146;17.120;2022-10-12T07:36:03;7.81;76.69
66373;SHT30;53168;51.146;17.120;2022-10-12T07:38:49;7.95;76.92
66373;SHT30;53168;51.146;17.120;2022-10-12T07:41:21;8.11;77.09
66373;SHT30;53168;51.146;17.120;2022-10-12T07:43:54;8.29;76.76
66373;SHT30;53168;51.146;17.120;2022-10-12T07:46:26;8.47;76.70
66373;SHT30;53168;51.146;17.120;2022-10-12T07:48:58;8.64;76.60
66373;SHT30;53168;51.146;17.120;2022-10-12T07:51:29;8.83;76.84
66373;SHT30;53168;51.146;17.120;2022-10-12T07:54:01;9.01;76.77
66373;SHT30;53168;51.146;17.120;2022-10-12T07:56:33;9.17;76.50
66373;SHT30;53168;51.146;17.120;2022-10-12T07:59:05;9.31;76.10
66373;SHT30;53168;51.146;17.120;2022-10-12T08:01:38;9.45;76.01
66373;SHT30;53168;51.146;17.120;2022-10-12T08:04:10;9.60;75.86
66373;SHT30;53168;51.146;17.120;2022-10-12T08:06:41;9.74;75.46
66373;SHT30;53168;51.146;17.120;2022-10-12T08:09:14;9.85;75.03
66373;SHT30;53168;51.146;17.120;2022-10-12T08:11:46;10.00;75.09
66373;SHT30;53168;51.146;17.120;2022-10-12T08:14:18;10.13;74.92
66373;SHT30;53168;51.146;17.120;2022-10-12T08:16:50;10.23;74.71
66373;SHT30;53168;51.146;17.120;2022-10-12T08:19:22;10.34;74.57
66373;SHT30;53168;51.146;17.120;2022-10-12T08:21:54;10.45;74.40
66373;SHT30;53168;51.146;17.120;2022-10-12T08:24:25;10.56;74.25
66373;SHT30;53168;51.146;17.120;2022-10-12T08:26:57;10.69;74.40
66373;SHT30;53168;51.146;17.120;2022-10-12T08:29:29;10.81;73.98
66373;SHT30;53168;51.146;17.120;2022-10-12T08:32:01;10.92;73.49
66373;SHT30;53168;51.146;17.120;2022-10-12T08:34:34;11.03;73.32
66373;SHT30;53168;51.146;17.120;2022-10-12T08:37:06;11.10;73.14
66373;SHT30;53168;51.146;17.120;2022-10-12T08:39:38;11.18;73.17
66373;SHT30;53168;51.146;17.120;2022-10-12T08:42:12;11.27;73.10
66373;SHT30;53168;51.146;17.120;2022-10-12T08:45:00;11.39;73.07
66373;SHT30;53168;51.146;17.120;2022-10-12T08:47:47;11.50;72.77
66373;SHT30;53168;51.146;17.120;2022-10-12T08:50:23;11.59;72.60
66373;SHT30;53168;51.146;17.120;2022-10-12T08:53:01;11.70;72.49
66373;SHT30;53168;51.146;17.120;2022-10-12T08:55:40;11.84;72.58
66373;SHT30;53168;51.146;17.120;2022-10-12T08:58:15;11.94;72.28
66373;SHT30;53168;51.146;17.120;2022-10-12T09:00:49;12.05;72.08
66373;SHT30;53168;51.146;17.120;2022-10-12T09:03:34;12.16;72.07
66373;SHT30;53168;51.146;17.120;2022-10-12T09:06:15;12.28;72.05
66373;SHT30;53168;51.146;17.120;2022-10-12T09:08:55;12.35;71.63
66373;SHT30;53168;51.146;17.120;2022-10-12T09:11:37;12.45;71.35
66373;SHT30;53168;51.146;17.120;2022-10-12T09:14:25;12.59;70.88
66373;SHT30;53168;51.146;17.120;2022-10-12T09:17:04;12.69;70.79
66373;SHT30;53168;51.146;17.120;2022-10-12T09:19:50;12.77;70.63
66373;SHT30;53168;51.146;17.120;2022-10-12T09:22:28;12.89;70.04
66373;SHT30;53168;51.146;17.120;2022-10-12T09:25:04;12.97;69.52
66373;SHT30;53168;51.146;17.120;2022-10-12T09:27:43;13.07;69.66
66373;SHT30;53168;51.146;17.120;2022-10-12T09:30:16;13.18;69.33
66373;SHT30;53168;51.146;17.120;2022-10-12T09:33:03;13.26;69.41
66373;SHT30;53168;51.146;17.120;2022-10-12T09:35:44;13.36;69.11
66373;SHT30;53168;51.146;17.120;2022-10-12T09:38:18;13.47;68.77
66373;SHT30;53168;51.146;17.120;2022-10-12T09:40:52;13.57;68.59
66373;SHT30;53168;51.146;17.120;2022-10-12T09:43:24;13.69;68.83
66373;SHT30;53168;51.146;17.120;2022-10-12T09:45:56;13.82;68.53
66373;SHT30;53168;51.146;17.120;2022-10-12T09:48:35;13.94;67.73
66373;SHT30;53168;51.146;17.120;2022-10-12T09:51:07;14.02;67.47
66373;SHT30;53168;51.146;17.120;2022-10-12T09:53:42;14.11;67.84
66373;SHT30;53168;51.146;17.120;2022-10-12T09:56:25;14.24;67.68
66373;SHT30;53168;51.146;17.120;2022-10-12T09:58:59;14.34;67.00
66373;SHT30;53168;51.146;17.120;2022-10-12T10:01:33;14.40;66.64
66373;SHT30;53168;51.146;17.120;2022-10-12T10:04:09;14.46;66.46
66373;SHT30;53168;51.146;17.120;2022-10-12T10:06:44;14.56;66.49
66373;SHT30;53168;51.146;17.120;2022-10-12T10:09:27;14.69;66.86
66373;SHT30;53168;51.146;17.120;2022-10-12T10:12:12;14.87;66.86
66373;SHT30;53168;51.146;17.120;2022-10-12T10:14:51;15.04;65.38
66373;SHT30;53168;51.146;17.120;2022-10-12T10:17:26;15.11;64.84
66373;SHT30;53168;51.146;17.120;2022-10-12T10:20:01;15.16;64.03
66373;SHT30;53168;51.146;17.120;2022-10-12T10:22:34;15.23;63.75
66373;SHT30;53168;51.146;17.120;2022-10-12T10:25:17;15.31;63.91
66373;SHT30;53168;51.146;17.120;2022-10-12T10:27:51;15.43;63.72
66373;SHT30;53168;51.146;17.120;2022-10-12T10:30:40;15.50;62.77
66373;SHT30;53168;51.146;17.120;2022-10-12T10:33:24;15.57;62.50
66373;SHT30;53168;51.146;17.120;2022-10-12T10:36:03;15.64;62.98
66373;SHT30;53168;51.146;17.120;2022-10-12T10:38:51;15.71;63.24
66373;SHT30;53168;51.146;17.120;2022-10-12T10:41:27;15.80;62.34
66373;SHT30;53168;51.146;17.120;2022-10-12T10:44:05;15.88;61.15
66373;SHT30;53168;51.146;17.120;2022-10-12T10:46:51;15.98;61.22
66373;SHT30;53168;51.146;17.120;2022-10-12T10:49:27;16.05;61.13
66373;SHT30;53168;51.146;17.120;2022-10-12T10:52:06;16.08;60.40
66373;SHT30;53168;51.146;17.120;2022-10-12T10:54:48;16.23;60.29
66373;SHT30;53168;51.146;17.120;2022-10-12T10:57:33;16.40;60.65
66373;SHT30;53168;51.146;17.120;2022-10-12T11:00:10;16.61;60.38
66373;SHT30;53168;51.146;17.120;2022-10-12T11:03:06;16.78;59.81
66373;SHT30;53168;51.146;17.120;2022-10-12T11:05:47;16.80;59.30
66373;SHT30;53168;51.146;17.120;2022-10-12T11:08:23;16.89;58.55
66373;SHT30;53168;51.146;17.120;2022-10-12T11:10:58;16.97;58.14
66373;SHT30;53168;51.146;17.120;2022-10-12T11:13:33;17.08;58.26
66373;SHT30;53168;51.146;17.120;2022-10-12T11:16:09;17.14;56.20
66373;SHT30;53168;51.146;17.120;2022-10-12T11:18:54;17.28;56.59
66373;SHT30;53168;51.146;17.120;2022-10-12T11:21:31;17.44;56.32
66373;SHT30;53168;51.146;17.120;2022-10-12T11:24:10;17.43;56.46
66373;SHT30;53168;51.146;17.120;2022-10-12T11:26:46;17.62;55.47
66373;SHT30;53168;51.146;17.120;2022-10-12T11:29:21;17.77;55.87
66373;SHT30;53168;51.146;17.120;2022-10-12T11:31:55;17.71;55.62
66373;SHT30;53168;51.146;17.120;2022-10-12T11:34:34;17.50;55.58
66373;SHT30;53168;51.146;17.120;2022-10-12T11:37:14;17.31;55.90
66373;SHT30;53168;51.146;17.120;2022-10-12T11:39:51;17.13;55.26
66373;SHT30;53168;51.146;17.120;2022-10-12T11:42:26;16.94;55.03
66373;SHT30;53168;51.146;17.120;2022-10-12T11:45:14;17.00;55.46
66373;SHT30;53168;51.146;17.120;2022-10-12T11:47:52;17.09;55.44
66373;SHT30;53168;51.146;17.120;2022-10-12T11:50:30;17.04;55.01
66373;SHT30;53168;51.146;17.120;2022-10-12T11:53:06;16.98;55.05
66373;SHT30;53168;51.146;17.120;2022-10-12T11:56:00;16.87;54.80
66373;SHT30;53168;51.146;17.120;2022-10-12T11:58:41;16.80;55.21
66373;SHT30;53168;51.146;17.120;2022-10-12T12:01:36;16.75;55.24
66373;SHT30;53168;51.146;17.120;2022-10-12T12:04:24;16.75;55.52
66373;SHT30;53168;51.146;17.120;2022-10-12T12:13:30;19.10;52.25
66373;SHT30;53168;51.146;17.120;2022-10-12T12:22:16;17.98;52.82
66373;SHT30;53168;51.146;17.120;2022-10-12T12:24:54;17.74;53.31
66373;SHT30;53168;51.146;17.120;2022-10-12T12:27:34;17.58;53.34
66373;SHT30;53168;51.146;17.120;2022-10-12T12:30:22;17.48;53.19
66373;SHT30;53168;51.146;17.120;2022-10-12T12:33:03;17.38;53.07
66373;SHT30;53168;51.146;17.120;2022-10-12T12:35:55;17.28;53.18
66373;SHT30;53168;51.146;17.120;2022-10-12T12:38:29;17.19;52.95
66373;SHT30;53168;51.146;17.120;2022-10-12T12:41:03;17.39;51.70
66373;SHT30;53168;51.146;17.120;2022-10-12T12:49:57;18.76;50.38
66373;SHT30;53168;51.146;17.120;2022-10-12T12:52:34;19.18;48.51
66373;SHT30;53168;51.146;17.120;2022-10-12T12:55:29;19.45;49.50
66373;SHT30;53168;51.146;17.120;2022-10-12T12:58:29;19.14;49.00
66373;SHT30;53168;51.146;17.120;2022-10-12T13:01:17;20.92;47.14
66373;SHT30;53168;51.146;17.120;2022-10-12T13:04:05;22.00;45.94
66373;SHT30;53168;51.146;17.120;2022-10-12T13:07:08;21.90;47.11
66373;SHT30;53168;51.146;17.120;2022-10-12T13:10:09;21.46;47.60
66373;SHT30;53168;51.146;17.120;2022-10-12T13:13:06;23.55;44.70
66373;SHT30;53168;51.146;17.120;2022-10-12T13:15:57;22.52;45.57
66373;SHT30;53168;51.146;17.120;2022-10-12T13:18:43;21.51;46.13
66373;SHT30;53168;51.146;17.120;2022-10-12T13:21:21;20.84;46.32
66373;SHT30;53168;51.146;17.120;2022-10-12T13:23:55;20.40;45.98
66373;SHT30;53168;51.146;17.120;2022-10-12T13:26:36;20.97;44.71
66373;SHT30;53168;51.146;17.120;2022-10-12T13:29:13;23.59;41.59
66373;SHT30;53168;51.146;17.120;2022-10-12T13:31:49;25.75;39.18
66373;SHT30;53168;51.146;17.120;2022-10-12T13:34:25;27.06;36.64
66373;SHT30;53168;51.146;17.120;2022-10-12T13:37:07;28.16;35.63
66373;SHT30;53168;51.146;17.120;2022-10-12T13:39:42;28.71;34.16
66373;SHT30;53168;51.146;17.120;2022-10-12T13:42:15;29.34;34.35
66373;SHT30;53168;51.146;17.120;2022-10-12T13:44:54;29.87;32.88
66373;SHT30;53168;51.146;17.120;2022-10-12T13:47:27;30.38;34.51
66373;SHT30;53168;51.146;17.120;2022-10-12T13:50:01;30.99;32.14
66373;SHT30;53168;51.146;17.120;2022-10-12T13:52:51;31.30;30.37
66373;SHT30;53168;51.146;17.120;2022-10-12T13:55:24;31.45;31.07
66373;SHT30;53168;51.146;17.120;2022-10-12T13:57:57;31.53;29.34
66373;SHT30;53168;51.146;17.120;2022-10-12T14:00:29;31.49;30.01
66373;SHT30;53168;51.146;17.120;2022-10-12T14:03:04;31.68;29.20
66373;SHT30;53168;51.146;17.120;2022-10-12T14:05:41;31.56;28.17
66373;SHT30;53168;51.146;17.120;2022-10-12T14:08:15;31.61;29.00
66373;SHT30;53168;51.146;17.120;2022-10-12T14:10:50;31.55;27.92
66373;SHT30;53168;51.146;17.120;2022-10-12T14:13:26;31.28;28.12
66373;SHT30;53168;51.146;17.120;2022-10-12T14:16:01;30.85;28.38
66373;SHT30;53168;51.146;17.120;2022-10-12T14:18:36;30.18;27.50
66373;SHT30;53168;51.146;17.120;2022-10-12T14:21:16;29.50;28.10
66373;SHT30;53168;51.146;17.120;2022-10-12T14:23:52;28.84;28.57
66373;SHT30;53168;51.146;17.120;2022-10-12T14:26:27;28.23;28.53
66373;SHT30;53168;51.146;17.120;2022-10-12T14:29:23;27.53;29.04
66373;SHT30;53168;51.146;17.120;2022-10-12T14:32:04;26.93;30.00
66373;SHT30;53168;51.146;17.120;2022-10-12T14:35:10;26.53;30.32
66373;SHT30;53168;51.146;17.120;2022-10-12T14:37:48;26.02;30.35
66373;SHT30;53168;51.146;17.120;2022-10-12T14:40:27;25.43;30.73
66373;SHT30;53168;51.146;17.120;2022-10-12T14:43:03;24.73;31.15
66373;SHT30;53168;51.146;17.120;2022-10-12T14:45:48;24.04;31.88
66373;SHT30;53168;51.146;17.120;2022-10-12T14:48:21;23.66;32.33
66373;SHT30;53168;51.146;17.120;2022-10-12T14:50:55;23.26;32.86
66373;SHT30;53168;51.146;17.120;2022-10-12T14:53:27;22.65;33.44
66373;SHT30;53168;51.146;17.120;2022-10-12T14:55:59;22.03;33.87
66373;SHT30;53168;51.146;17.120;2022-10-12T14:58:31;21.35;34.59
66373;SHT30;53168;51.146;17.120;2022-10-12T15:01:04;20.72;35.03
66373;SHT30;53168;51.146;17.120;2022-10-12T15:03:36;20.21;35.59
66373;SHT30;53168;51.146;17.120;2022-10-12T15:06:09;19.61;36.46
66373;SHT30;53168;51.146;17.120;2022-10-12T15:08:43;19.06;36.92
66373;SHT30;53168;51.146;17.120;2022-10-12T15:11:17;18.62;37.08
66373;SHT30;53168;51.146;17.120;2022-10-12T15:13:49;18.24;37.61
66373;SHT30;53168;51.146;17.120;2022-10-12T15:16:21;17.85;38.12
66373;SHT30;53168;51.146;17.120;2022-10-12T15:18:55;17.49;38.85
66373;SHT30;53168;51.146;17.120;2022-10-12T15:21:27;17.14;39.50
66373;SHT30;53168;51.146;17.120;2022-10-12T15:23:59;16.80;40.35
66373;SHT30;53168;51.146;17.120;2022-10-12T15:26:31;16.46;40.83
66373;SHT30;53168;51.146;17.120;2022-10-12T15:29:09;16.15;41.32
66373;SHT30;53168;51.146;17.120;2022-10-12T15:31:41;15.91;41.57
66373;SHT30;53168;51.146;17.120;2022-10-12T15:34:19;15.67;42.13
66373;SHT30;53168;51.146;17.120;2022-10-12T15:36:51;15.44;42.45
66373;SHT30;53168;51.146;17.120;2022-10-12T15:39:23;15.25;42.83
66373;SHT30;53168;51.146;17.120;2022-10-12T15:44:47;14.92;43.34
66373;SHT30;53168;51.146;17.120;2022-10-12T15:47:18;14.78;43.75
66373;SHT30;53168;51.146;17.120;2022-10-12T15:49:50;14.65;44.10
66373;SHT30;53168;51.146;17.120;2022-10-12T15:52:22;14.51;44.57
66373;SHT30;53168;51.146;17.120;2022-10-12T15:54:54;14.38;44.86
66373;SHT30;53168;51.146;17.120;2022-10-12T15:57:26;14.24;44.98
66373;SHT30;53168;51.146;17.120;2022-10-12T16:00:02;14.11;45.54
66373;SHT30;53168;51.146;17.120;2022-10-12T16:02:40;13.95;45.83
66373;SHT30;53168;51.146;17.120;2022-10-12T16:05:15;13.79;46.23
66373;SHT30;53168;51.146;17.120;2022-10-12T16:07:49;13.65;46.92
66373;SHT30;53168;51.146;17.120;2022-10-12T16:10:21;13.50;47.11
66373;SHT30;53168;51.146;17.120;2022-10-12T16:12:55;13.35;47.28
66373;SHT30;53168;51.146;17.120;2022-10-12T16:15:28;13.22;47.61
66373;SHT30;53168;51.146;17.120;2022-10-12T16:18:02;13.07;47.73
66373;SHT30;53168;51.146;17.120;2022-10-12T16:20:35;12.96;48.10
66373;SHT30;53168;51.146;17.120;2022-10-12T16:23:11;12.83;48.47
66373;SHT30;53168;51.146;17.120;2022-10-12T16:25:45;12.71;48.67
66373;SHT30;53168;51.146;17.120;2022-10-12T16:28:17;12.60;48.76
66373;SHT30;53168;51.146;17.120;2022-10-12T16:30:51;12.49;49.23
66373;SHT30;53168;51.146;17.120;2022-10-12T16:33:24;12.38;49.46
66373;SHT30;53168;51.146;17.120;2022-10-12T16:35:56;12.28;49.98
66373;SHT30;53168;51.146;17.120;2022-10-12T16:38:28;12.19;50.18
66373;SHT30;53168;51.146;17.120;2022-10-12T16:40:59;12.10;50.48
66373;SHT30;53168;51.146;17.120;2022-10-12T16:43:36;12.02;50.66